Time;durP1;ratioP1;P1;durP2;ratioP2;P2;SDS_P1;SDS_P2;PMS_P1;PMS_P2;Temp;Humidity;BMP_temperature;BMP_pressure;BME280_temperature;BME280_humidity;BME280_pressure;Samples;Min_cycle;Max_cycle;Signal;HPM_P1;HPM_P2
2021/11/15 00:09:10;;;;;;;0.20;0.00;;;12.00;99.90;;;;;;20394716;29;20237;-76
2021/11/15 00:19:15;;;;;;;0.20;0.00;;;11.90;99.90;;;;;;20400448;29;20198;-76
2021/11/15 00:29:19;;;;;;;0.20;0.10;;;11.80;99.90;;;;;;20377231;29;20236;-76
2021/11/15 00:39:24;;;;;;;0.20;0.10;;;11.80;99.90;;;;;;20377749;29;20228;-75
2021/11/15 00:49:27;;;;;;;0.20;0.10;;;11.90;99.90;;;;;;20343467;29;20362;-75
2021/11/15 00:59:33;;;;;;;0.20;0.00;;;11.90;99.90;;;;;;20369918;23;20699;-69
2021/11/15 01:09:36;;;;;;;0.20;0.10;;;11.90;99.90;;;;;;20507146;29;20235;-70
2021/11/15 01:19:42;;;;;;;0.20;0.10;;;11.80;99.90;;;;;;20506185;29;20272;-68
2021/11/15 01:29:46;;;;;;;0.20;0.00;;;11.80;99.90;;;;;;20505144;29;20236;-70
2021/11/15 01:39:52;;;;;;;0.20;0.00;;;11.80;99.90;;;;;;20504218;29;20192;-70
2021/11/15 01:49:57;;;;;;;0.20;0.10;;;11.70;99.90;;;;;;20500012;28;20232;-71
2021/11/15 02:00:02;;;;;;;0.20;0.10;;;11.70;99.90;;;;;;20513670;23;20243;-77
2021/11/15 02:10:08;;;;;;;0.20;0.10;;;11.50;99.90;;;;;;20501621;29;20296;-76
2021/11/15 02:20:16;;;;;;;0.20;0.10;;;11.40;99.90;;;;;;20485090;29;20685;-77
2021/11/15 02:30:21;;;;;;;0.20;0.10;;;11.50;99.90;;;;;;20500041;29;20228;-76
2021/11/15 02:40:28;;;;;;;0.20;0.10;;;11.40;99.90;;;;;;20499564;29;20533;-75
2021/11/15 02:50:32;;;;;;;0.20;0.10;;;11.40;99.90;;;;;;20498780;29;20250;-75
2021/11/15 03:00:41;;;;;;;0.20;0.10;;;11.30;99.90;;;;;;20483731;28;20229;-76
2021/11/15 03:10:46;;;;;;;0.20;0.10;;;11.20;99.90;;;;;;20418188;29;20583;-75
2021/11/15 03:20:54;;;;;;;0.20;0.10;;;11.10;99.90;;;;;;20417164;29;20276;-76
2021/11/15 03:31:01;;;;;;;0.20;0.10;;;11.00;99.90;;;;;;20417543;29;20229;-75
2021/11/15 03:41:06;;;;;;;0.20;0.00;;;11.00;99.90;;;;;;20416599;29;20228;-75
2021/11/15 03:51:09;;;;;;;0.20;0.10;;;10.90;99.90;;;;;;20414291;29;20231;-77
2021/11/15 04:01:15;;;;;;;0.20;0.10;;;11.00;99.90;;;;;;20485727;28;20315;-76
2021/11/15 04:11:21;;;;;;;0.30;0.30;;;11.10;99.90;;;;;;20499030;28;20220;-76
2021/11/15 04:21:29;;;;;;;0.20;0.10;;;11.10;99.90;;;;;;20492442;29;20312;-76
2021/11/15 04:31:33;;;;;;;0.20;0.10;;;11.10;99.90;;;;;;20507710;29;20247;-75
2021/11/15 04:41:38;;;;;;;0.20;0.00;;;11.10;99.90;;;;;;20484330;29;20204;-75
2021/11/15 04:51:42;;;;;;;0.20;0.10;;;11.10;99.90;;;;;;20486338;28;20239;-74
2021/11/15 05:01:47;;;;;;;0.20;0.10;;;11.10;99.90;;;;;;20454647;23;20323;-70
2021/11/15 05:11:50;;;;;;;0.20;0.10;;;11.10;99.90;;;;;;20505847;28;20232;-71
2021/11/15 05:21:55;;;;;;;0.20;0.10;;;11.10;99.90;;;;;;20506199;28;20296;-71
2021/11/15 05:32:01;;;;;;;0.20;0.10;;;11.10;99.90;;;;;;20486210;28;20248;-72
2021/11/15 05:42:07;;;;;;;0.20;0.00;;;11.10;99.90;;;;;;20503340;28;20621;-71
2021/11/15 05:52:10;;;;;;;0.20;0.00;;;11.30;99.90;;;;;;20502898;28;20281;-71
2021/11/15 06:02:15;;;;;;;0.20;0.10;;;11.40;99.90;;;;;;20484422;28;20243;-69
2021/11/15 06:12:19;;;;;;;0.20;0.10;;;11.50;99.90;;;;;;20500082;28;20228;-70
2021/11/15 06:22:24;;;;;;;0.20;0.10;;;11.70;99.90;;;;;;20499843;28;20200;-70
2021/11/15 06:32:28;;;;;;;0.20;0.10;;;11.70;99.90;;;;;;20499040;28;20316;-70
2021/11/15 06:42:33;;;;;;;0.20;0.10;;;11.30;99.90;;;;;;20523071;28;20196;-70
2021/11/15 06:52:37;;;;;;;0.20;0.10;;;11.30;99.90;;;;;;20575180;28;20223;-71
2021/11/15 07:02:42;;;;;;;0.20;0.10;;;11.40;99.90;;;;;;20572585;28;20230;-71
2021/11/15 07:12:46;;;;;;;0.20;0.10;;;11.60;99.90;;;;;;20545976;28;20231;-71
2021/11/15 07:22:52;;;;;;;0.20;0.10;;;11.70;99.90;;;;;;20572265;28;20285;-71
2021/11/15 07:32:56;;;;;;;0.20;0.10;;;11.70;99.90;;;;;;20576375;28;20227;-71
2021/11/15 07:43:01;;;;;;;0.20;0.10;;;11.70;99.90;;;;;;20573446;28;20192;-71
2021/11/15 07:53:05;;;;;;;0.20;0.00;;;11.80;99.90;;;;;;20585254;28;20232;-72
2021/11/15 08:03:10;;;;;;;0.20;0.10;;;12.00;99.90;;;;;;20588795;28;20708;-72
2021/11/15 08:13:13;;;;;;;0.20;0.10;;;12.00;99.90;;;;;;20532530;28;20263;-72
2021/11/15 08:23:24;;;;;;;0.20;0.10;;;12.00;99.90;;;;;;20507620;28;20197;-71
2021/11/15 08:33:29;;;;;;;0.20;0.10;;;12.30;99.90;;;;;;20530815;28;20760;-72
2021/11/15 08:43:36;;;;;;;0.77;0.77;;;12.70;99.90;;;;;;20586339;28;20661;-73
2021/11/15 08:53:40;;;;;;;0.20;0.10;;;13.00;99.90;;;;;;20586278;28;20307;-72
2021/11/15 09:03:50;;;;;;;0.20;0.00;;;13.50;99.90;;;;;;20585779;28;20224;-73
2021/11/15 09:13:54;;;;;;;0.20;0.10;;;13.40;99.90;;;;;;20541127;28;20228;-72
2021/11/15 09:23:59;;;;;;;0.20;0.10;;;13.20;99.90;;;;;;20504020;28;20226;-72
2021/11/15 09:34:03;;;;;;;0.20;0.10;;;12.90;99.90;;;;;;20501939;28;20746;-73
2021/11/15 09:44:08;;;;;;;0.20;0.10;;;12.40;99.90;;;;;;20502927;28;20738;-73
2021/11/15 09:54:13;;;;;;;0.20;0.10;;;12.30;99.90;;;;;;20455803;28;20231;-72
2021/11/15 10:04:18;;;;;;;0.20;0.10;;;12.30;99.90;;;;;;20416930;28;20324;-70
2021/11/15 10:14:23;;;;;;;0.20;0.10;;;12.90;99.90;;;;;;20498510;28;20316;-72
2021/11/15 10:24:32;;;;;;;0.20;0.00;;;13.20;99.90;;;;;;20497638;28;20201;-72
2021/11/15 10:34:37;;;;;;;0.20;0.00;;;13.50;99.90;;;;;;20496857;28;20252;-72
2021/11/15 10:44:50;;;;;;;0.20;0.13;;;13.80;99.90;;;;;;20480298;28;20300;-72
2021/11/15 10:55:01;;;;;;;0.20;0.00;;;13.80;99.90;;;;;;20496830;28;20243;-72
2021/11/15 11:05:08;;;;;;;0.20;0.00;;;14.40;99.90;;;;;;20496643;28;20315;-72
2021/11/15 11:15:26;;;;;;;0.20;0.00;;;15.00;99.90;;;;;;20441003;28;20221;-72
2021/11/15 11:25:34;;;;;;;0.20;0.10;;;15.30;99.90;;;;;;20414412;29;20209;-71
2021/11/15 11:35:37;;;;;;;0.20;0.10;;;16.30;99.90;;;;;;20415692;29;20775;-74
2021/11/15 11:45:43;;;;;;;0.20;0.03;;;18.90;99.90;;;;;;20481342;28;20325;-72
2021/11/15 11:55:47;;;;;;;0.30;0.30;;;16.70;99.90;;;;;;20517147;28;20506;-72
2021/11/15 12:05:53;;;;;;;0.20;0.00;;;16.20;99.90;;;;;;20482584;28;20279;-73
2021/11/15 12:16:00;;;;;;;0.20;0.10;;;15.50;99.90;;;;;;20496090;28;20237;-72
2021/11/15 12:26:09;;;;;;;0.20;0.00;;;16.30;99.90;;;;;;20458937;28;20193;-71
2021/11/15 12:36:20;;;;;;;0.20;0.03;;;16.50;99.90;;;;;;20459129;28;20284;-72
2021/11/15 12:46:25;;;;;;;0.20;0.10;;;17.10;99.90;;;;;;20466375;28;20751;-71
2021/11/15 12:56:35;;;;;;;0.20;0.03;;;16.80;99.90;;;;;;20483087;28;20634;-72
2021/11/15 13:06:41;;;;;;;0.20;0.10;;;16.20;99.90;;;;;;20505144;28;20233;-72
2021/11/15 13:16:46;;;;;;;0.20;0.00;;;15.70;99.90;;;;;;20461093;28;20305;-72
2021/11/15 13:26:56;;;;;;;0.20;0.10;;;15.80;99.90;;;;;;20463226;28;20212;-73
2021/11/15 13:37:00;;;;;;;0.20;0.00;;;15.90;99.90;;;;;;20437264;28;20193;-73
2021/11/15 13:47:06;;;;;;;0.20;0.10;;;15.50;99.90;;;;;;20488978;28;20315;-72
2021/11/15 13:57:10;;;;;;;0.20;0.10;;;15.50;99.90;;;;;;20501496;28;20213;-70
2021/11/15 14:07:19;;;;;;;0.20;0.10;;;15.70;99.90;;;;;;20500916;28;20238;-71
2021/11/15 14:17:23;;;;;;;0.20;0.00;;;15.80;99.90;;;;;;20430198;28;20278;-71
2021/11/15 14:27:28;;;;;;;0.20;0.10;;;15.80;99.90;;;;;;20438620;28;20635;-71
2021/11/15 14:37:33;;;;;;;0.20;0.10;;;15.70;99.90;;;;;;20442584;28;20201;-70
2021/11/15 14:47:38;;;;;;;0.20;0.00;;;15.50;99.90;;;;;;20420821;28;20233;-69
2021/11/15 14:57:42;;;;;;;0.20;0.00;;;15.30;99.90;;;;;;20415236;29;20213;-71
2021/11/15 15:07:49;;;;;;;0.20;0.10;;;15.20;99.90;;;;;;20472930;28;20244;-71
2021/11/15 15:17:54;;;;;;;0.20;0.10;;;15.30;99.90;;;;;;20491884;28;20270;-71
2021/11/15 15:28:03;;;;;;;0.20;0.10;;;15.30;99.90;;;;;;20491110;28;20308;-71
2021/11/15 15:38:07;;;;;;;0.20;0.10;;;15.20;99.90;;;;;;20476057;28;20236;-71
2021/11/15 15:48:15;;;;;;;0.20;0.00;;;15.10;99.90;;;;;;20489759;28;20320;-71
2021/11/15 15:58:24;;;;;;;0.20;0.00;;;15.10;99.90;;;;;;20439793;28;20700;-71
2021/11/15 16:18:50;;;;;;;0.20;0.00;;;14.60;99.90;;;;;;20487899;28;20264;-70
2021/11/15 16:28:55;;;;;;;0.20;0.10;;;14.50;99.90;;;;;;20477915;28;20225;-71
2021/11/15 16:38:59;;;;;;;0.20;0.10;;;14.10;99.90;;;;;;20482223;28;20292;-71
2021/11/15 16:49:05;;;;;;;0.20;0.10;;;14.00;99.90;;;;;;20429187;28;20324;-70
2021/11/15 16:59:11;;;;;;;0.20;0.10;;;13.90;99.90;;;;;;20407765;29;20301;-72
2021/11/15 17:09:18;;;;;;;0.20;0.10;;;13.70;99.90;;;;;;20431410;28;20233;-71
2021/11/15 17:19:22;;;;;;;0.20;0.10;;;13.80;99.90;;;;;;20502306;28;20260;-73
2021/11/15 17:29:27;;;;;;;0.20;0.10;;;13.70;99.90;;;;;;20503520;28;20243;-71
2021/11/15 17:39:31;;;;;;;0.20;0.10;;;13.40;99.90;;;;;;20443947;28;20199;-72
2021/11/15 17:49:40;;;;;;;0.20;0.10;;;13.30;99.90;;;;;;20431105;28;20742;-73
2021/11/15 17:59:44;;;;;;;0.20;0.10;;;13.20;99.90;;;;;;20441410;28;20252;-71
2021/11/15 18:09:50;;;;;;;0.20;0.10;;;13.10;99.90;;;;;;20441921;28;20214;-70
2021/11/15 18:19:56;;;;;;;0.20;0.10;;;12.90;99.90;;;;;;20474211;28;20629;-69
2021/11/15 18:30:03;;;;;;;0.20;0.10;;;12.60;99.90;;;;;;20416408;29;20259;-71
2021/11/15 18:40:12;;;;;;;0.20;0.10;;;12.50;99.90;;;;;;20485007;28;20210;-70
2021/11/15 18:50:19;;;;;;;0.20;0.10;;;12.60;99.90;;;;;;20494677;28;20224;-71
2021/11/15 19:00:26;;;;;;;0.20;0.10;;;12.80;99.90;;;;;;20494134;28;20236;-71
2021/11/15 19:10:46;;;;;;;0.20;0.10;;;12.60;99.90;;;;;;20477652;28;20234;-70
2021/11/15 19:20:53;;;;;;;0.20;0.10;;;12.80;99.90;;;;;;20549819;28;20540;-72
2021/11/15 19:31:00;;;;;;;0.20;0.10;;;12.90;99.90;;;;;;20571242;28;20228;-71
2021/11/15 19:41:04;;;;;;;0.20;0.10;;;13.10;99.90;;;;;;20492580;28;20675;-70
2021/11/15 19:51:09;;;;;;;0.20;0.10;;;13.20;99.90;;;;;;20473780;28;20263;-70
2021/11/15 20:01:13;;;;;;;0.20;0.10;;;13.30;99.90;;;;;;20484336;28;20232;-72
2021/11/15 20:11:18;;;;;;;0.20;0.10;;;13.20;99.90;;;;;;20474186;28;20217;-71
2021/11/15 20:21:24;;;;;;;0.20;0.10;;;13.40;99.90;;;;;;20396190;29;20207;-70
2021/11/15 20:31:29;;;;;;;0.20;0.10;;;13.40;99.90;;;;;;20397089;28;20221;-72
2021/11/15 20:41:33;;;;;;;0.20;0.10;;;13.30;99.90;;;;;;20448599;28;20249;-71
2021/11/15 20:51:38;;;;;;;0.20;0.10;;;13.20;99.90;;;;;;20411854;29;20322;-70
2021/11/15 21:01:42;;;;;;;0.20;0.10;;;13.20;99.90;;;;;;20425023;29;20300;-72
2021/11/15 21:11:47;;;;;;;0.20;0.10;;;13.20;99.90;;;;;;20453043;29;20225;-73
2021/11/15 21:21:52;;;;;;;1.53;1.43;;;13.30;99.90;;;;;;20436120;29;20233;-70
2021/11/15 21:31:58;;;;;;;0.20;0.10;;;13.00;99.90;;;;;;20434005;28;20272;-71
2021/11/15 21:42:03;;;;;;;0.20;0.10;;;12.90;99.90;;;;;;20432787;28;20228;-74
2021/11/15 21:52:11;;;;;;;0.20;0.10;;;12.80;99.90;;;;;;20423118;29;20228;-71
2021/11/15 22:02:18;;;;;;;0.20;0.10;;;12.90;99.90;;;;;;20423228;29;20639;-72
2021/11/15 22:12:23;;;;;;;0.20;0.10;;;12.90;99.90;;;;;;20426351;28;20256;-70
2021/11/15 22:22:28;;;;;;;0.20;0.10;;;13.30;99.90;;;;;;20473825;28;20193;-74
2021/11/15 22:32:33;;;;;;;0.20;0.10;;;13.30;99.90;;;;;;20508329;28;20222;-70
2021/11/15 22:42:37;;;;;;;0.60;0.60;;;13.10;99.90;;;;;;20560169;28;20286;-69
2021/11/15 22:52:42;;;;;;;0.20;0.10;;;12.90;99.90;;;;;;20539499;28;20232;-71
2021/11/15 23:02:46;;;;;;;0.20;0.10;;;12.90;99.90;;;;;;20496876;28;20243;-70
2021/11/15 23:12:52;;;;;;;0.20;0.10;;;12.80;99.90;;;;;;20460475;28;20237;-71
2021/11/15 23:22:55;;;;;;;0.20;0.10;;;12.80;99.90;;;;;;20416099;29;20265;-71
2021/11/15 23:33:00;;;;;;;0.20;0.10;;;12.60;99.90;;;;;;20430392;28;20311;-71
2021/11/15 23:43:05;;;;;;;0.20;0.10;;;12.60;99.90;;;;;;20494235;28;20251;-70
2021/11/15 23:53:10;;;;;;;0.20;0.10;;;12.70;99.90;;;;;;20493306;28;20718;-70
